KTTN/TTN METAR and TAF weather

Enter ICAO airport designator
Station Type Date Time Source
KTTN METAR 2018/12/15 21:00 UTC NOAA

KTTN 152100Z 07008KT 10SM OVC020 11/08 A3005 RMK AO2 T01110078


Station Type Date Time Source
KTTN Decoded METAR 2018/12/15 21:00 UTC NOAA

TRENTON MERCER COUNTY AIRPORT , NJ, United States (KTTN) 40-17N 074-49W 59M
Dec 15, 2018 - 04:00 PM EST / 2018.12.15 2100 UTC
Wind: from the ENE (070 degrees) at 9 MPH (8 KT):0
Visibility: 10 mile(s):0
Sky conditions: overcast
Temperature: 52.0 F (11.1 C)
Dew Point: 46.0 F (7.8 C)
Relative Humidity: 80%
Pressure (altimeter): 30.05 in. Hg (1017 hPa)
ob: KTTN 152100Z 07008KT 10SM OVC020 11/08 A3005 RMK AO2 T01110078
cycle: 21

Station Type Date Time Source
KTTN TAF 2018/12/15 20:24 UTC NOAA

TAF
AMD KTTN 152023Z 1520/1618 05012KT P6SM BKN008 OVC020
FM152200 04010KT 4SM -RA BR OVC006
FM160600 04012G22KT 3SM RA OVC008
FM161200 04014G24KT 5SM -SHRA BR BKN007


Example: see airport list